sensor_id;sensor_type;location;lat;lon;timestamp;pressure;altitude;pressure_sealevel;temperature;humidity
22206;BME280;11272;50.104;8.754;2023-06-19T00:02:11;99907.75;;;27.55;36.30
22206;BME280;11272;50.104;8.754;2023-06-19T00:04:37;99907.88;;;27.53;36.54
22206;BME280;11272;50.104;8.754;2023-06-19T03:08:33;99994.28;;;23.66;44.91
22206;BME280;11272;50.104;8.754;2023-06-19T03:11:00;99989.75;;;23.66;45.30
22206;BME280;11272;50.104;8.754;2023-06-19T03:13:26;99992.31;;;23.68;45.81
22206;BME280;11272;50.104;8.754;2023-06-19T03:15:52;99995.88;;;23.68;45.60
22206;BME280;11272;50.104;8.754;2023-06-19T03:18:18;100000.19;;;23.71;46.03
22206;BME280;11272;50.104;8.754;2023-06-19T03:20:44;100013.75;;;23.71;45.99
22206;BME280;11272;50.104;8.754;2023-06-19T03:23:10;100012.78;;;23.72;46.20
22206;BME280;11272;50.104;8.754;2023-06-19T03:25:37;100015.22;;;23.75;46.33
22206;BME280;11272;50.104;8.754;2023-06-19T03:28:03;100017.81;;;23.76;46.24
22206;BME280;11272;50.104;8.754;2023-06-19T03:30:30;100020.38;;;23.78;46.28
22206;BME280;11272;50.104;8.754;2023-06-19T03:32:56;100029.84;;;23.83;46.13
22206;BME280;11272;50.104;8.754;2023-06-19T03:35:41;100027.63;;;23.88;46.11
22206;BME280;11272;50.104;8.754;2023-06-19T03:38:10;100040.84;;;23.93;46.01
22206;BME280;11272;50.104;8.754;2023-06-19T03:40:36;100045.00;;;23.97;45.83
22206;BME280;11272;50.104;8.754;2023-06-19T03:43:07;100048.31;;;24.01;45.85
22206;BME280;11272;50.104;8.754;2023-06-19T03:45:35;100065.06;;;24.06;45.86
22206;BME280;11272;50.104;8.754;2023-06-19T03:48:01;100062.13;;;24.09;45.66
22206;BME280;11272;50.104;8.754;2023-06-19T03:50:28;100062.84;;;24.11;45.81
22206;BME280;11272;50.104;8.754;2023-06-19T03:52:54;100068.16;;;24.12;45.71
22206;BME280;11272;50.104;8.754;2023-06-19T03:55:20;100059.03;;;24.13;45.69
22206;BME280;11272;50.104;8.754;2023-06-19T03:57:46;100047.91;;;24.16;45.50
22206;BME280;11272;50.104;8.754;2023-06-19T04:00:14;100047.69;;;24.19;45.61
22206;BME280;11272;50.104;8.754;2023-06-19T04:02:42;100056.44;;;24.23;45.61
22206;BME280;11272;50.104;8.754;2023-06-19T04:05:08;100053.44;;;24.26;45.73
22206;BME280;11272;50.104;8.754;2023-06-19T04:07:34;100066.16;;;24.25;45.68
22206;BME280;11272;50.104;8.754;2023-06-19T04:10:00;100068.88;;;24.25;45.81
22206;BME280;11272;50.104;8.754;2023-06-19T04:12:26;100075.78;;;24.29;45.66
22206;BME280;11272;50.104;8.754;2023-06-19T04:14:52;100089.34;;;24.29;45.78
22206;BME280;11272;50.104;8.754;2023-06-19T04:17:19;100091.78;;;24.32;45.74
22206;BME280;11272;50.104;8.754;2023-06-19T04:19:45;100090.81;;;24.33;45.77
22206;BME280;11272;50.104;8.754;2023-06-19T04:22:11;100099.22;;;24.30;46.07
22206;BME280;11272;50.104;8.754;2023-06-19T04:24:36;100100.34;;;24.28;46.03
22206;BME280;11272;50.104;8.754;2023-06-19T04:27:03;100103.91;;;24.28;46.21
22206;BME280;11272;50.104;8.754;2023-06-19T04:29:29;100104.91;;;24.27;46.36
22206;BME280;11272;50.104;8.754;2023-06-19T04:32:00;100107.09;;;24.33;46.61
22206;BME280;11272;50.104;8.754;2023-06-19T04:34:28;100117.22;;;24.31;46.95
22206;BME280;11272;50.104;8.754;2023-06-19T04:36:55;100112.44;;;24.13;47.35
22206;BME280;11272;50.104;8.754;2023-06-19T04:39:24;100115.84;;;23.61;48.49
22206;BME280;11272;50.104;8.754;2023-06-19T04:41:50;100127.59;;;23.37;49.75
22206;BME280;11272;50.104;8.754;2023-06-19T04:44:16;100131.91;;;23.40;50.75
22206;BME280;11272;50.104;8.754;2023-06-19T04:46:42;100134.28;;;23.44;51.11
22206;BME280;11272;50.104;8.754;2023-06-19T04:49:09;100136.13;;;23.44;51.73
22206;BME280;11272;50.104;8.754;2023-06-19T04:51:35;100146.63;;;23.48;52.11
22206;BME280;11272;50.104;8.754;2023-06-19T04:54:02;100149.56;;;23.57;52.53
22206;BME280;11272;50.104;8.754;2023-06-19T04:56:29;100149.09;;;23.63;52.71
22206;BME280;11272;50.104;8.754;2023-06-19T04:58:55;100147.63;;;23.70;52.53
22206;BME280;11272;50.104;8.754;2023-06-19T05:01:26;100149.09;;;23.74;52.57
22206;BME280;11272;50.104;8.754;2023-06-19T05:03:56;100147.00;;;23.77;52.33
22206;BME280;11272;50.104;8.754;2023-06-19T05:06:25;100149.69;;;23.88;52.27
22206;BME280;11272;50.104;8.754;2023-06-19T05:08:51;100147.13;;;23.98;51.82
22206;BME280;11272;50.104;8.754;2023-06-19T05:11:17;100155.50;;;24.06;51.50
22206;BME280;11272;50.104;8.754;2023-06-19T05:13:43;100154.25;;;24.10;51.36
22206;BME280;11272;50.104;8.754;2023-06-19T05:16:10;100144.72;;;24.16;50.80
22206;BME280;11272;50.104;8.754;2023-06-19T05:18:36;100147.72;;;24.24;50.78
22206;BME280;11272;50.104;8.754;2023-06-19T05:21:01;100144.88;;;24.25;50.50
22206;BME280;11272;50.104;8.754;2023-06-19T05:23:27;100141.66;;;24.31;50.34
22206;BME280;11272;50.104;8.754;2023-06-19T05:25:54;100143.84;;;24.38;50.23
22206;BME280;11272;50.104;8.754;2023-06-19T05:28:19;100148.78;;;24.44;49.86
22206;BME280;11272;50.104;8.754;2023-06-19T05:58:05;100151.38;;;25.81;48.07
22206;BME280;11272;50.104;8.754;2023-06-19T06:00:31;100152.97;;;25.83;48.01
22206;BME280;11272;50.104;8.754;2023-06-19T06:02:57;100162.78;;;25.95;47.67
22206;BME280;11272;50.104;8.754;2023-06-19T06:05:27;100146.16;;;25.98;47.64
22206;BME280;11272;50.104;8.754;2023-06-19T06:07:54;100162.81;;;26.15;47.14
22206;BME280;11272;50.104;8.754;2023-06-19T06:13:24;100149.28;;;26.34;46.75
22206;BME280;11272;50.104;8.754;2023-06-19T06:15:50;100155.91;;;26.41;46.48
22206;BME280;11272;50.104;8.754;2023-06-19T06:18:16;100165.38;;;26.56;46.42
22206;BME280;11272;50.104;8.754;2023-06-19T06:20:42;100171.00;;;26.64;46.41
22206;BME280;11272;50.104;8.754;2023-06-19T06:23:08;100165.53;;;26.64;46.30
22206;BME280;11272;50.104;8.754;2023-06-19T06:25:33;100176.16;;;26.77;46.32
22206;BME280;11272;50.104;8.754;2023-06-19T06:28:00;100173.44;;;26.87;45.98
22206;BME280;11272;50.104;8.754;2023-06-19T06:30:26;100182.78;;;26.94;45.78
22206;BME280;11272;50.104;8.754;2023-06-19T06:32:55;100173.47;;;27.06;45.62
22206;BME280;11272;50.104;8.754;2023-06-19T06:35:22;100174.63;;;27.13;45.38
22206;BME280;11272;50.104;8.754;2023-06-19T06:37:47;100174.16;;;27.27;45.42
22206;BME280;11272;50.104;8.754;2023-06-19T06:40:15;100182.19;;;27.38;45.16
22206;BME280;11272;50.104;8.754;2023-06-19T06:42:41;100181.06;;;27.50;45.24
22206;BME280;11272;50.104;8.754;2023-06-19T06:45:07;100182.41;;;27.74;44.83
22206;BME280;11272;50.104;8.754;2023-06-19T06:53:19;100189.94;;;28.36;43.35
22206;BME280;11272;50.104;8.754;2023-06-19T06:55:46;100178.94;;;28.45;43.41
22206;BME280;11272;50.104;8.754;2023-06-19T06:58:15;100178.81;;;28.65;43.09
22206;BME280;11272;50.104;8.754;2023-06-19T07:11:35;100189.25;;;29.84;41.34
22206;BME280;11272;50.104;8.754;2023-06-19T07:14:02;100183.91;;;30.00;40.72
22206;BME280;11272;50.104;8.754;2023-06-19T07:16:28;100173.91;;;30.25;40.47
22206;BME280;11272;50.104;8.754;2023-06-19T07:18:54;100169.41;;;30.49;40.30
22206;BME280;11272;50.104;8.754;2023-06-19T07:21:23;100175.41;;;30.61;39.70
22206;BME280;11272;50.104;8.754;2023-06-19T07:23:49;100163.09;;;30.65;39.80
22206;BME280;11272;50.104;8.754;2023-06-19T07:26:14;100152.31;;;30.88;39.37
22206;BME280;11272;50.104;8.754;2023-06-19T07:28:41;100157.69;;;31.06;38.79
22206;BME280;11272;50.104;8.754;2023-06-19T07:31:07;100157.47;;;30.91;38.97
22206;BME280;11272;50.104;8.754;2023-06-19T07:33:33;100164.31;;;30.95;39.11
22206;BME280;11272;50.104;8.754;2023-06-19T07:36:01;100174.66;;;31.17;38.72
22206;BME280;11272;50.104;8.754;2023-06-19T07:38:28;100170.22;;;31.24;38.41
22206;BME280;11272;50.104;8.754;2023-06-19T07:40:54;100165.94;;;31.14;38.35
22206;BME280;11272;50.104;8.754;2023-06-19T07:43:20;100175.50;;;31.02;38.21
22206;BME280;11272;50.104;8.754;2023-06-19T07:48:34;100173.44;;;30.87;38.24
22206;BME280;11272;50.104;8.754;2023-06-19T07:50:59;100181.47;;;30.81;38.48
22206;BME280;11272;50.104;8.754;2023-06-19T07:53:25;100182.69;;;30.86;38.48
22206;BME280;11272;50.104;8.754;2023-06-19T07:55:51;100189.53;;;30.99;38.00
22206;BME280;11272;50.104;8.754;2023-06-19T07:58:16;100192.84;;;31.10;37.85
22206;BME280;11272;50.104;8.754;2023-06-19T08:00:42;100187.88;;;31.30;37.73
22206;BME280;11272;50.104;8.754;2023-06-19T08:03:08;100197.66;;;31.57;37.59
22206;BME280;11272;50.104;8.754;2023-06-19T08:05:34;100196.94;;;31.79;37.28
22206;BME280;11272;50.104;8.754;2023-06-19T08:07:59;100197.63;;;31.89;37.19
22206;BME280;11272;50.104;8.754;2023-06-19T08:10:25;100193.28;;;31.95;36.87
22206;BME280;11272;50.104;8.754;2023-06-19T08:12:51;100205.28;;;32.10;36.43
22206;BME280;11272;50.104;8.754;2023-06-19T08:15:17;100206.19;;;31.94;36.66
22206;BME280;11272;50.104;8.754;2023-06-19T08:17:42;100197.03;;;32.02;36.88
22206;BME280;11272;50.104;8.754;2023-06-19T08:20:09;100202.00;;;32.06;36.63
22206;BME280;11272;50.104;8.754;2023-06-19T08:22:35;100205.44;;;32.08;36.51
22206;BME280;11272;50.104;8.754;2023-06-19T08:25:02;100209.03;;;32.17;36.52
22206;BME280;11272;50.104;8.754;2023-06-19T08:27:28;100214.38;;;32.10;36.46
22206;BME280;11272;50.104;8.754;2023-06-19T08:29:54;100205.97;;;32.04;36.47
22206;BME280;11272;50.104;8.754;2023-06-19T08:32:19;100212.88;;;32.47;36.33
22206;BME280;11272;50.104;8.754;2023-06-19T08:34:45;100209.94;;;32.87;35.83
22206;BME280;11272;50.104;8.754;2023-06-19T08:37:11;100215.06;;;33.13;35.16
22206;BME280;11272;50.104;8.754;2023-06-19T08:39:37;100216.34;;;33.33;34.95
22206;BME280;11272;50.104;8.754;2023-06-19T08:42:08;100208.47;;;33.45;34.86
22206;BME280;11272;50.104;8.754;2023-06-19T08:44:37;100214.84;;;33.68;34.51
22206;BME280;11272;50.104;8.754;2023-06-19T08:47:04;100210.41;;;34.11;34.04
22206;BME280;11272;50.104;8.754;2023-06-19T08:49:31;100211.94;;;34.43;33.62
22206;BME280;11272;50.104;8.754;2023-06-19T08:51:59;100215.16;;;34.76;32.86
22206;BME280;11272;50.104;8.754;2023-06-19T08:54:24;100211.88;;;34.87;32.77
22206;BME280;11272;50.104;8.754;2023-06-19T08:56:51;100220.03;;;34.95;32.39
22206;BME280;11272;50.104;8.754;2023-06-19T08:59:20;100232.31;;;35.29;32.05
22206;BME280;11272;50.104;8.754;2023-06-19T09:01:50;100220.38;;;35.50;31.43
22206;BME280;11272;50.104;8.754;2023-06-19T09:04:25;100214.19;;;35.69;31.55
22206;BME280;11272;50.104;8.754;2023-06-19T09:06:57;100214.47;;;35.74;31.01
22206;BME280;11272;50.104;8.754;2023-06-19T09:09:25;100219.63;;;35.83;31.00
22206;BME280;11272;50.104;8.754;2023-06-19T09:12:00;100219.22;;;35.86;31.10
22206;BME280;11272;50.104;8.754;2023-06-19T09:17:06;100217.47;;;35.79;31.15
22206;BME280;11272;50.104;8.754;2023-06-19T09:19:33;100223.75;;;36.22;30.74
22206;BME280;11272;50.104;8.754;2023-06-19T09:22:04;100210.44;;;36.45;30.55
22206;BME280;11272;50.104;8.754;2023-06-19T09:24:40;100215.34;;;36.09;30.37
22206;BME280;11272;50.104;8.754;2023-06-19T09:27:31;100212.28;;;35.69;31.15
22206;BME280;11272;50.104;8.754;2023-06-19T09:29:56;100218.94;;;35.32;31.15
22206;BME280;11272;50.104;8.754;2023-06-19T09:32:24;100209.53;;;35.27;31.54
22206;BME280;11272;50.104;8.754;2023-06-19T09:34:55;100216.91;;;34.84;31.92
22206;BME280;11272;50.104;8.754;2023-06-19T09:37:30;100206.22;;;34.15;32.68
22206;BME280;11272;50.104;8.754;2023-06-19T09:40:02;100227.59;;;33.99;32.70
22206;BME280;11272;50.104;8.754;2023-06-19T09:42:38;100219.16;;;33.86;33.07
22206;BME280;11272;50.104;8.754;2023-06-19T09:45:06;100218.44;;;33.69;33.47
22206;BME280;11272;50.104;8.754;2023-06-19T09:47:43;100219.84;;;33.65;33.26
22206;BME280;11272;50.104;8.754;2023-06-19T09:50:12;100217.66;;;33.15;33.99
22206;BME280;11272;50.104;8.754;2023-06-19T09:52:41;100224.78;;;32.78;34.50
22206;BME280;11272;50.104;8.754;2023-06-19T09:55:10;100231.91;;;32.65;34.68
22206;BME280;11272;50.104;8.754;2023-06-19T09:57:39;100223.84;;;32.86;34.77
22206;BME280;11272;50.104;8.754;2023-06-19T10:00:07;100218.69;;;33.59;34.28
22206;BME280;11272;50.104;8.754;2023-06-19T10:02:45;100217.13;;;33.79;33.55
22206;BME280;11272;50.104;8.754;2023-06-19T10:05:12;100217.50;;;33.76;33.60
22206;BME280;11272;50.104;8.754;2023-06-19T10:07:42;100213.41;;;33.87;33.33
22206;BME280;11272;50.104;8.754;2023-06-19T10:10:10;100215.72;;;33.61;33.55
22206;BME280;11272;50.104;8.754;2023-06-19T10:12:43;100226.97;;;33.36;33.48
22206;BME280;11272;50.104;8.754;2023-06-19T10:18:05;100215.53;;;33.25;34.03
22206;BME280;11272;50.104;8.754;2023-06-19T10:20:35;100211.91;;;33.70;33.60
22206;BME280;11272;50.104;8.754;2023-06-19T10:23:20;100217.72;;;33.90;33.34
22206;BME280;11272;50.104;8.754;2023-06-19T10:28:32;100210.94;;;34.80;32.83
22206;BME280;11272;50.104;8.754;2023-06-19T10:31:05;100208.72;;;34.90;32.42
22206;BME280;11272;50.104;8.754;2023-06-19T10:33:36;100215.28;;;34.89;32.07
22206;BME280;11272;50.104;8.754;2023-06-19T10:36:15;100225.16;;;34.77;32.21
22206;BME280;11272;50.104;8.754;2023-06-19T10:38:41;100221.50;;;34.62;32.02
22206;BME280;11272;50.104;8.754;2023-06-19T10:41:20;100214.97;;;34.04;32.53
22206;BME280;11272;50.104;8.754;2023-06-19T10:43:57;100232.09;;;33.62;32.94
22206;BME280;11272;50.104;8.754;2023-06-19T10:46:24;100219.53;;;33.14;33.36
22206;BME280;11272;50.104;8.754;2023-06-19T10:48:50;100221.31;;;33.07;33.90
22206;BME280;11272;50.104;8.754;2023-06-19T10:51:19;100222.31;;;33.14;33.78
22206;BME280;11272;50.104;8.754;2023-06-19T10:53:46;100222.69;;;33.11;33.97
22206;BME280;11272;50.104;8.754;2023-06-19T10:56:13;100216.31;;;33.11;34.16
22206;BME280;11272;50.104;8.754;2023-06-19T10:58:41;100215.72;;;33.23;33.99
22206;BME280;11272;50.104;8.754;2023-06-19T11:01:10;100213.50;;;33.41;33.82
22206;BME280;11272;50.104;8.754;2023-06-19T11:03:36;100212.22;;;33.29;33.80
22206;BME280;11272;50.104;8.754;2023-06-19T11:06:02;100220.47;;;33.07;34.06
22206;BME280;11272;50.104;8.754;2023-06-19T11:08:28;100220.91;;;32.65;34.73
22206;BME280;11272;50.104;8.754;2023-06-19T11:10:55;100218.63;;;32.37;34.92
22206;BME280;11272;50.104;8.754;2023-06-19T11:13:22;100207.69;;;32.13;35.25
22206;BME280;11272;50.104;8.754;2023-06-19T11:15:49;100212.91;;;31.75;35.83
22206;BME280;11272;50.104;8.754;2023-06-19T11:18:16;100224.63;;;31.61;35.83
22206;BME280;11272;50.104;8.754;2023-06-19T11:20:50;100217.38;;;31.44;36.01
22206;BME280;11272;50.104;8.754;2023-06-19T11:23:25;100218.06;;;31.38;36.06
22206;BME280;11272;50.104;8.754;2023-06-19T11:25:51;100219.59;;;31.49;36.22
22206;BME280;11272;50.104;8.754;2023-06-19T11:28:18;100214.13;;;31.49;36.05
22206;BME280;11272;50.104;8.754;2023-06-19T11:30:48;100209.84;;;31.30;36.32
22206;BME280;11272;50.104;8.754;2023-06-19T11:33:18;100200.56;;;31.15;36.53
22206;BME280;11272;50.104;8.754;2023-06-19T11:35:51;100202.41;;;30.98;37.04
22206;BME280;11272;50.104;8.754;2023-06-19T11:38:21;100203.09;;;30.92;36.94
22206;BME280;11272;50.104;8.754;2023-06-19T11:40:48;100194.66;;;30.85;37.22
22206;BME280;11272;50.104;8.754;2023-06-19T11:43:30;100194.69;;;31.02;37.14
22206;BME280;11272;50.104;8.754;2023-06-19T11:46:04;100197.13;;;31.37;36.56
22206;BME280;11272;50.104;8.754;2023-06-19T11:48:32;100195.75;;;31.49;36.43
22206;BME280;11272;50.104;8.754;2023-06-19T11:50:58;100193.03;;;31.57;36.31
22206;BME280;11272;50.104;8.754;2023-06-19T11:53:24;100192.28;;;31.80;36.24
22206;BME280;11272;50.104;8.754;2023-06-19T11:55:52;100192.78;;;31.99;35.70
22206;BME280;11272;50.104;8.754;2023-06-19T11:58:18;100193.78;;;32.14;35.70
22206;BME280;11272;50.104;8.754;2023-06-19T12:00:46;100188.53;;;32.36;35.46
22206;BME280;11272;50.104;8.754;2023-06-19T12:03:12;100198.91;;;32.56;35.37
22206;BME280;11272;50.104;8.754;2023-06-19T12:05:38;100191.22;;;32.83;35.20
22206;BME280;11272;50.104;8.754;2023-06-19T12:08:05;100193.50;;;33.25;34.68
22206;BME280;11272;50.104;8.754;2023-06-19T12:10:32;100192.44;;;33.49;33.96
22206;BME280;11272;50.104;8.754;2023-06-19T12:12:58;100199.72;;;33.41;33.91
22206;BME280;11272;50.104;8.754;2023-06-19T12:15:25;100181.88;;;33.37;34.31
22206;BME280;11272;50.104;8.754;2023-06-19T12:17:51;100193.94;;;33.89;33.62
22206;BME280;11272;50.104;8.754;2023-06-19T12:20:17;100185.03;;;34.45;32.70
22206;BME280;11272;50.104;8.754;2023-06-19T12:22:43;100187.31;;;35.14;32.45
22206;BME280;11272;50.104;8.754;2023-06-19T12:25:09;100179.66;;;35.86;31.32
22206;BME280;11272;50.104;8.754;2023-06-19T12:27:37;100178.75;;;36.48;30.62
22206;BME280;11272;50.104;8.754;2023-06-19T12:30:04;100184.84;;;36.78;30.31
22206;BME280;11272;50.104;8.754;2023-06-19T12:32:31;100179.94;;;36.80;29.78
22206;BME280;11272;50.104;8.754;2023-06-19T12:34:57;100178.44;;;36.77;29.31
22206;BME280;11272;50.104;8.754;2023-06-19T12:37:23;100181.94;;;36.51;29.72
22206;BME280;11272;50.104;8.754;2023-06-19T12:39:50;100183.94;;;36.23;29.83
22206;BME280;11272;50.104;8.754;2023-06-19T12:42:16;100192.47;;;36.28;29.54
22206;BME280;11272;50.104;8.754;2023-06-19T12:44:43;100174.78;;;36.16;29.12
22206;BME280;11272;50.104;8.754;2023-06-19T12:47:12;100169.59;;;36.13;29.09
22206;BME280;11272;50.104;8.754;2023-06-19T12:49:38;100173.06;;;36.15;29.35
22206;BME280;11272;50.104;8.754;2023-06-19T12:52:04;100184.69;;;36.38;28.90
22206;BME280;11272;50.104;8.754;2023-06-19T12:54:29;100177.81;;;36.34;29.34
22206;BME280;11272;50.104;8.754;2023-06-19T12:56:55;100180.19;;;36.37;29.00
22206;BME280;11272;50.104;8.754;2023-06-19T12:59:21;100185.16;;;36.55;28.86
22206;BME280;11272;50.104;8.754;2023-06-19T13:01:47;100174.28;;;36.47;28.98
22206;BME280;11272;50.104;8.754;2023-06-19T13:04:15;100172.91;;;36.29;28.53
22206;BME280;11272;50.104;8.754;2023-06-19T13:06:41;100179.09;;;35.69;28.55
22206;BME280;11272;50.104;8.754;2023-06-19T13:09:07;100171.59;;;34.93;29.40
22206;BME280;11272;50.104;8.754;2023-06-19T13:11:33;100167.88;;;34.50;29.93
22206;BME280;11272;50.104;8.754;2023-06-19T13:14:00;100172.88;;;34.40;30.35
22206;BME280;11272;50.104;8.754;2023-06-19T13:16:26;100161.09;;;34.52;30.05
22206;BME280;11272;50.104;8.754;2023-06-19T13:18:52;100161.84;;;34.97;29.71
22206;BME280;11272;50.104;8.754;2023-06-19T13:21:18;100158.22;;;35.18;29.68
22206;BME280;11272;50.104;8.754;2023-06-19T13:23:44;100157.31;;;35.11;29.82
22206;BME280;11272;50.104;8.754;2023-06-19T13:26:10;100156.34;;;34.97;30.34
22206;BME280;11272;50.104;8.754;2023-06-19T13:28:36;100163.75;;;35.18;30.25
22206;BME280;11272;50.104;8.754;2023-06-19T13:31:03;100150.59;;;35.41;29.90
22206;BME280;11272;50.104;8.754;2023-06-19T13:33:29;100157.38;;;35.66;29.16
22206;BME280;11272;50.104;8.754;2023-06-19T13:35:55;100157.22;;;35.19;29.11
22206;BME280;11272;50.104;8.754;2023-06-19T13:38:22;100162.13;;;34.66;29.68
22206;BME280;11272;50.104;8.754;2023-06-19T13:40:48;100169.88;;;34.56;29.97
22206;BME280;11272;50.104;8.754;2023-06-19T13:43:14;100166.72;;;34.59;30.00
22206;BME280;11272;50.104;8.754;2023-06-19T13:45:41;100160.16;;;34.60;29.90
22206;BME280;11272;50.104;8.754;2023-06-19T13:48:07;100159.75;;;34.63;29.95
22206;BME280;11272;50.104;8.754;2023-06-19T13:50:33;100154.22;;;34.63;29.54
22206;BME280;11272;50.104;8.754;2023-06-19T13:53:00;100149.22;;;34.52;30.08
22206;BME280;11272;50.104;8.754;2023-06-19T13:55:26;100150.84;;;34.46;29.95
22206;BME280;11272;50.104;8.754;2023-06-19T13:57:52;100147.63;;;34.43;30.11
22206;BME280;11272;50.104;8.754;2023-06-19T14:00:18;100142.28;;;34.56;30.04
22206;BME280;11272;50.104;8.754;2023-06-19T14:02:45;100141.41;;;34.70;29.88
22206;BME280;11272;50.104;8.754;2023-06-19T14:05:12;100126.34;;;34.73;29.72
22206;BME280;11272;50.104;8.754;2023-06-19T14:07:41;100122.19;;;34.83;29.44
22206;BME280;11272;50.104;8.754;2023-06-19T14:10:08;100120.94;;;35.07;29.53
22206;BME280;11272;50.104;8.754;2023-06-19T14:12:34;100119.91;;;35.08;29.60
22206;BME280;11272;50.104;8.754;2023-06-19T14:15:00;100122.41;;;35.03;29.63
22206;BME280;11272;50.104;8.754;2023-06-19T14:17:26;100121.03;;;34.92;29.14
22206;BME280;11272;50.104;8.754;2023-06-19T14:19:52;100111.38;;;34.82;29.69
22206;BME280;11272;50.104;8.754;2023-06-19T14:22:18;100116.41;;;34.78;29.47
22206;BME280;11272;50.104;8.754;2023-06-19T14:24:44;100117.75;;;34.82;29.55
22206;BME280;11272;50.104;8.754;2023-06-19T14:27:10;100111.16;;;34.83;29.23
22206;BME280;11272;50.104;8.754;2023-06-19T14:29:36;100111.72;;;34.72;28.70
22206;BME280;11272;50.104;8.754;2023-06-19T14:32:01;100106.16;;;34.51;28.57
22206;BME280;11272;50.104;8.754;2023-06-19T14:34:28;100098.75;;;34.37;28.45
22206;BME280;11272;50.104;8.754;2023-06-19T14:36:54;100106.44;;;34.41;28.51
22206;BME280;11272;50.104;8.754;2023-06-19T14:39:20;100103.75;;;34.48;28.74
22206;BME280;11272;50.104;8.754;2023-06-19T14:41:46;100100.06;;;34.41;28.35
22206;BME280;11272;50.104;8.754;2023-06-19T14:44:11;100110.19;;;34.34;28.70
22206;BME280;11272;50.104;8.754;2023-06-19T14:46:37;100107.03;;;34.37;28.21
22206;BME280;11272;50.104;8.754;2023-06-19T14:49:06;100105.91;;;34.31;28.58
22206;BME280;11272;50.104;8.754;2023-06-19T14:51:32;100122.63;;;34.15;28.54
22206;BME280;11272;50.104;8.754;2023-06-19T14:53:57;100120.31;;;33.97;28.99
22206;BME280;11272;50.104;8.754;2023-06-19T14:56:23;100118.28;;;33.76;28.95
22206;BME280;11272;50.104;8.754;2023-06-19T14:58:49;100115.03;;;33.58;29.10
22206;BME280;11272;50.104;8.754;2023-06-19T15:01:15;100109.81;;;33.49;29.40
22206;BME280;11272;50.104;8.754;2023-06-19T15:03:42;100110.75;;;33.41;29.30
22206;BME280;11272;50.104;8.754;2023-06-19T15:06:08;100111.31;;;33.36;29.42
22206;BME280;11272;50.104;8.754;2023-06-19T15:08:34;100114.06;;;33.36;29.25
22206;BME280;11272;50.104;8.754;2023-06-19T15:11:03;100107.22;;;33.47;29.23
22206;BME280;11272;50.104;8.754;2023-06-19T15:13:31;100114.28;;;33.64;29.24
22206;BME280;11272;50.104;8.754;2023-06-19T15:15:57;100106.81;;;33.73;29.30
22206;BME280;11272;50.104;8.754;2023-06-19T15:18:24;100111.53;;;33.64;29.04
22206;BME280;11272;50.104;8.754;2023-06-19T15:20:50;100098.22;;;33.53;29.16
22206;BME280;11272;50.104;8.754;2023-06-19T15:23:17;100099.66;;;33.49;29.22
22206;BME280;11272;50.104;8.754;2023-06-19T15:25:43;100101.50;;;33.34;29.47
22206;BME280;11272;50.104;8.754;2023-06-19T15:28:09;100104.34;;;33.26;29.15
22206;BME280;11272;50.104;8.754;2023-06-19T15:30:34;100101.91;;;33.08;29.35
22206;BME280;11272;50.104;8.754;2023-06-19T15:33:00;100100.66;;;32.96;29.54
22206;BME280;11272;50.104;8.754;2023-06-19T15:35:26;100091.25;;;32.90;29.25
22206;BME280;11272;50.104;8.754;2023-06-19T15:37:52;100091.84;;;32.78;29.39
22206;BME280;11272;50.104;8.754;2023-06-19T15:40:18;100089.66;;;32.73;29.27
22206;BME280;11272;50.104;8.754;2023-06-19T15:42:43;100085.75;;;32.68;29.01
22206;BME280;11272;50.104;8.754;2023-06-19T15:45:10;100087.25;;;32.47;29.42
22206;BME280;11272;50.104;8.754;2023-06-19T15:47:37;100075.25;;;32.40;29.47
22206;BME280;11272;50.104;8.754;2023-06-19T15:50:03;100076.44;;;32.38;29.74
22206;BME280;11272;50.104;8.754;2023-06-19T15:52:29;100073.19;;;32.42;29.49
22206;BME280;11272;50.104;8.754;2023-06-19T15:54:55;100074.16;;;32.49;29.69
22206;BME280;11272;50.104;8.754;2023-06-19T15:57:21;100065.47;;;32.60;29.90
22206;BME280;11272;50.104;8.754;2023-06-19T15:59:47;100068.22;;;32.69;29.54
22206;BME280;11272;50.104;8.754;2023-06-19T16:02:17;100057.00;;;32.70;29.71
22206;BME280;11272;50.104;8.754;2023-06-19T16:04:45;100066.66;;;32.66;29.71
22206;BME280;11272;50.104;8.754;2023-06-19T16:07:11;100062.31;;;32.72;29.79
22206;BME280;11272;50.104;8.754;2023-06-19T16:09:37;100062.28;;;32.80;29.61
22206;BME280;11272;50.104;8.754;2023-06-19T16:12:04;100052.59;;;32.84;29.78
22206;BME280;11272;50.104;8.754;2023-06-19T16:14:30;100056.97;;;32.93;29.82
22206;BME280;11272;50.104;8.754;2023-06-19T16:16:56;100054.53;;;32.98;29.60
22206;BME280;11272;50.104;8.754;2023-06-19T16:19:22;100048.72;;;32.93;29.47
22206;BME280;11272;50.104;8.754;2023-06-19T16:21:47;100046.78;;;32.79;29.61
22206;BME280;11272;50.104;8.754;2023-06-19T16:24:13;100042.38;;;32.70;29.87
22206;BME280;11272;50.104;8.754;2023-06-19T16:26:39;100040.69;;;32.69;29.79
22206;BME280;11272;50.104;8.754;2023-06-19T16:29:05;100035.53;;;32.66;30.14
22206;BME280;11272;50.104;8.754;2023-06-19T16:31:31;100037.00;;;32.53;29.82
22206;BME280;11272;50.104;8.754;2023-06-19T16:33:57;100042.72;;;32.44;30.41
22206;BME280;11272;50.104;8.754;2023-06-19T16:36:23;100040.59;;;32.31;30.50
22206;BME280;11272;50.104;8.754;2023-06-19T16:38:49;100038.31;;;32.12;30.67
22206;BME280;11272;50.104;8.754;2023-06-19T16:41:16;100031.28;;;32.01;30.85
22206;BME280;11272;50.104;8.754;2023-06-19T16:43:41;100036.47;;;31.96;30.95
22206;BME280;11272;50.104;8.754;2023-06-19T16:46:07;100036.00;;;31.93;31.21
22206;BME280;11272;50.104;8.754;2023-06-19T16:48:34;100040.16;;;31.89;31.06
22206;BME280;11272;50.104;8.754;2023-06-19T16:51:00;100049.91;;;31.91;31.39